createdAt,value
2018-04-22T00:01:24.457Z,5.73
2018-04-22T00:03:52.113Z,4.67
2018-04-22T00:06:20.888Z,5.23
2018-04-22T00:08:49.351Z,5.30
2018-04-22T00:11:17.837Z,5.23
2018-04-22T00:13:46.219Z,5.63
2018-04-22T00:16:13.831Z,4.97
2018-04-22T00:18:42.050Z,5.57
2018-04-22T00:21:09.656Z,5.03
2018-04-22T00:23:37.332Z,5.17
2018-04-22T00:26:04.975Z,5.30
2018-04-22T00:28:32.609Z,4.70
2018-04-22T00:31:00.244Z,4.40
2018-04-22T00:33:27.929Z,4.80
2018-04-22T00:35:56.359Z,4.87
2018-04-22T00:38:23.937Z,4.90
2018-04-22T00:40:51.576Z,5.07
2018-04-22T00:43:19.212Z,4.90
2018-04-22T00:45:46.833Z,4.87
2018-04-22T00:48:14.452Z,4.80
2018-04-22T00:50:42.055Z,5.40
2018-04-22T00:53:09.660Z,5.10
2018-04-22T00:55:37.278Z,4.90
2018-04-22T00:58:05.179Z,5.03
2018-04-22T01:00:32.801Z,4.73
2018-04-22T01:03:00.433Z,4.17
2018-04-22T01:05:28.085Z,4.83
2018-04-22T01:07:55.708Z,4.30
2018-04-22T01:10:24.088Z,5.23
2018-04-22T01:12:52.491Z,4.57
2018-04-22T01:15:20.087Z,5.00
2018-04-22T01:17:47.727Z,4.90
2018-04-22T01:20:15.381Z,4.77
2018-04-22T01:22:43.005Z,4.77
2018-04-22T01:25:11.364Z,4.23
2018-04-22T01:27:38.986Z,4.70
2018-04-22T01:30:07.215Z,4.50
2018-04-22T01:32:35.567Z,4.90
2018-04-22T01:35:03.846Z,4.60
2018-04-22T01:37:31.455Z,4.60
2018-04-22T01:39:59.090Z,4.40
2018-04-22T01:42:27.464Z,4.53
2018-04-22T01:44:55.854Z,4.30
2018-04-22T01:49:58.398Z,4.57
2018-04-22T01:52:26.065Z,4.30
2018-04-22T01:54:53.665Z,4.73
2018-04-22T01:57:22.089Z,5.07
2018-04-22T01:59:49.765Z,4.50
2018-04-22T02:02:17.344Z,5.07
2018-04-22T02:04:44.971Z,4.50
2018-04-22T02:07:12.543Z,4.33
2018-04-22T02:09:40.216Z,4.43
2018-04-22T02:12:07.801Z,4.77
2018-04-22T02:14:36.231Z,4.83
2018-04-22T02:17:03.910Z,4.63
2018-04-22T02:19:31.496Z,4.37
2018-04-22T02:21:59.889Z,4.30
2018-04-22T02:24:27.529Z,4.50
2018-04-22T02:26:55.934Z,4.90
2018-04-22T02:29:23.591Z,5.60
2018-04-22T02:31:51.205Z,5.23
2018-04-22T02:34:20.407Z,5.30
2018-04-22T02:36:48.035Z,4.73
2018-04-22T02:39:15.653Z,5.10
2018-04-22T02:41:44.077Z,4.83
2018-04-22T02:44:11.657Z,5.00
2018-04-22T02:46:39.276Z,4.87
2018-04-22T02:49:06.889Z,4.97
2018-04-22T02:51:34.503Z,5.10
2018-04-22T02:54:02.150Z,4.90
2018-04-22T02:56:29.765Z,5.10
2018-04-22T02:58:58.164Z,5.40
2018-04-22T03:01:27.431Z,5.47
2018-04-22T03:03:55.009Z,5.53
2018-04-22T03:06:22.627Z,5.20
2018-04-22T03:08:50.210Z,5.10
2018-04-22T03:11:17.844Z,5.17
2018-04-22T03:13:45.463Z,4.80
2018-04-22T03:16:14.177Z,5.40
2018-04-22T03:18:41.818Z,5.10
2018-04-22T03:21:09.404Z,5.17
2018-04-22T03:23:37.040Z,4.53
2018-04-22T03:26:04.617Z,4.97
2018-04-22T03:28:32.258Z,5.13
2018-04-22T03:30:59.867Z,5.33
2018-04-22T03:33:27.482Z,5.63
2018-04-22T03:35:55.181Z,4.80
2018-04-22T03:38:22.832Z,5.30
2018-04-22T03:40:50.447Z,5.33
2018-04-22T03:43:18.826Z,5.33
2018-04-22T03:45:47.174Z,4.90
2018-04-22T03:48:14.844Z,5.33
2018-04-22T03:50:42.478Z,5.03
2018-04-22T03:53:10.067Z,4.63
2018-04-22T03:55:39.200Z,5.17
2018-04-22T03:58:06.785Z,4.63
2018-04-22T04:00:34.414Z,4.73
2018-04-22T04:03:02.096Z,5.30
2018-04-22T04:05:29.685Z,4.70
2018-04-22T04:07:57.312Z,4.77
2018-04-22T04:10:24.941Z,4.60
2018-04-22T04:12:53.319Z,4.67
2018-04-22T04:15:21.713Z,4.33
2018-04-22T04:21:11.860Z,4.50
2018-04-22T04:27:07.964Z,4.33
2018-04-22T04:29:36.345Z,4.30
2018-04-22T04:32:04.680Z,4.50
2018-04-22T04:34:32.341Z,3.77
2018-04-22T04:36:59.940Z,4.30
2018-04-22T04:39:28.287Z,4.10
2018-04-22T04:41:55.883Z,4.40
2018-04-22T04:44:24.253Z,4.00
2018-04-22T04:46:52.600Z,4.07
2018-04-22T04:49:20.187Z,4.13
2018-04-22T04:51:48.441Z,3.70
2018-04-22T04:54:16.072Z,4.10
2018-04-22T04:56:43.787Z,4.30
2018-04-22T04:59:12.163Z,3.70
2018-04-22T05:01:41.216Z,4.10
2018-04-22T05:04:08.870Z,3.87
2018-04-22T05:06:36.520Z,4.13
2018-04-22T05:09:04.142Z,4.27
2018-04-22T05:11:31.824Z,4.00
2018-04-22T05:14:00.015Z,4.00
2018-04-22T05:16:27.631Z,4.10
2018-04-22T05:18:55.988Z,3.57
2018-04-22T05:21:25.083Z,3.87
2018-04-22T05:23:52.685Z,3.77
2018-04-22T05:26:20.261Z,4.00
2018-04-22T05:28:47.867Z,4.23
2018-04-22T05:31:16.379Z,3.73
2018-04-22T05:33:44.715Z,3.83
2018-04-22T05:36:12.330Z,3.60
2018-04-22T05:38:39.931Z,3.90
2018-04-22T05:41:07.499Z,3.77
2018-04-22T05:43:35.145Z,3.33
2018-04-22T05:46:02.736Z,3.60
2018-04-22T05:48:31.081Z,3.77
2018-04-22T05:50:58.677Z,3.90
2018-04-22T05:53:27.088Z,3.63
2018-04-22T05:55:54.707Z,3.70
2018-04-22T05:58:23.089Z,3.50
2018-04-22T06:00:51.432Z,3.43
2018-04-22T06:03:19.058Z,3.70
2018-04-22T06:05:46.641Z,3.60
2018-04-22T06:08:14.269Z,3.57
2018-04-22T06:10:41.916Z,3.70
2018-04-22T06:13:10.308Z,4.30
2018-04-22T06:15:37.918Z,4.60
2018-04-22T06:18:05.536Z,4.20
2018-04-22T06:20:33.218Z,4.53
2018-04-22T06:23:00.795Z,4.37
2018-04-22T06:25:28.389Z,4.37
2018-04-22T06:27:56.765Z,4.60
2018-04-22T06:30:25.142Z,4.40
2018-04-22T06:32:53.544Z,4.70
2018-04-22T06:35:21.136Z,4.70
2018-04-22T06:37:48.740Z,4.90
2018-04-22T06:40:17.154Z,4.63
2018-04-22T06:42:46.101Z,4.90
2018-04-22T06:45:14.442Z,4.80
2018-04-22T06:47:42.050Z,4.43
2018-04-22T06:50:10.399Z,4.60
2018-04-22T06:52:38.007Z,4.27
2018-04-22T06:55:05.615Z,4.53
2018-04-22T06:57:34.796Z,4.60
2018-04-22T07:00:02.381Z,4.37
2018-04-22T07:02:29.963Z,4.40
2018-04-22T07:04:58.370Z,3.80
2018-04-22T07:07:25.980Z,3.60
2018-04-22T07:09:53.564Z,3.70
2018-04-22T07:12:21.945Z,3.70
2018-04-22T07:14:50.343Z,3.23
2018-04-22T07:17:17.965Z,3.90
2018-04-22T07:19:46.523Z,2.83
2018-04-22T07:22:14.264Z,3.23
2018-04-22T07:24:41.848Z,3.27
2018-04-22T07:27:09.481Z,3.60
2018-04-22T07:29:37.067Z,3.30
2018-04-22T07:32:04.635Z,3.13
2018-04-22T07:34:32.312Z,3.10
2018-04-22T07:37:00.659Z,3.40
2018-04-22T07:39:28.260Z,3.17
2018-04-22T07:41:56.649Z,3.20
2018-04-22T07:44:24.253Z,3.20
2018-04-22T07:46:51.863Z,3.20
2018-04-22T07:49:20.245Z,3.63
2018-04-22T07:51:47.835Z,3.43
2018-04-22T07:54:16.090Z,3.83
2018-04-22T07:56:44.065Z,3.40
2018-04-22T07:59:11.972Z,3.57
2018-04-22T08:01:39.628Z,3.60
2018-04-22T08:04:07.206Z,4.53
2018-04-22T08:06:34.788Z,4.10
2018-04-22T08:09:03.202Z,4.10
2018-04-22T08:11:30.826Z,3.87
2018-04-22T08:13:59.198Z,4.00
2018-04-22T08:16:27.576Z,3.90
2018-04-22T08:18:55.999Z,3.53
2018-04-22T08:21:23.641Z,3.97
2018-04-22T08:23:51.327Z,3.97
2018-04-22T08:26:19.981Z,3.97
2018-04-22T08:28:47.836Z,4.27
2018-04-22T08:31:15.489Z,5.03
2018-04-22T08:33:43.873Z,5.20
2018-04-22T08:36:12.245Z,5.00
2018-04-22T08:38:40.986Z,5.50
2018-04-22T08:41:08.625Z,5.97
2018-04-22T08:43:36.264Z,5.93
2018-04-22T08:46:03.845Z,6.13
2018-04-22T08:48:31.520Z,6.50
2018-04-22T08:50:59.412Z,5.43
2018-04-22T08:53:27.093Z,6.10
2018-04-22T08:55:55.471Z,6.17
2018-04-22T08:58:24.823Z,7.90
2018-04-22T09:00:55.555Z,6.30
2018-04-22T09:03:23.379Z,6.97
2018-04-22T09:05:53.201Z,6.93
2018-04-22T09:08:22.365Z,6.20
2018-04-22T09:10:50.433Z,6.10
2018-04-22T09:13:18.127Z,6.50
2018-04-22T09:15:46.502Z,7.30
2018-04-22T09:18:14.159Z,7.33
2018-04-22T09:20:42.899Z,7.17
2018-04-22T09:23:10.751Z,7.27
2018-04-22T09:25:38.485Z,7.13
2018-04-22T09:28:06.128Z,7.47
2018-04-22T09:30:34.523Z,6.57
2018-04-22T09:33:02.199Z,7.13
2018-04-22T09:35:30.511Z,6.93
2018-04-22T09:37:59.924Z,6.93
2018-04-22T09:40:27.608Z,6.57
2018-04-22T09:42:55.212Z,6.70
2018-04-22T09:45:22.877Z,6.37
2018-04-22T09:47:51.755Z,6.40
2018-04-22T09:50:19.549Z,7.07
2018-04-22T09:52:47.174Z,6.93
2018-04-22T09:55:14.787Z,6.90
2018-04-22T09:57:44.054Z,6.43
2018-04-22T10:00:11.737Z,6.93
2018-04-22T10:02:39.389Z,6.93
2018-04-22T10:05:09.119Z,7.37
2018-04-22T10:07:36.973Z,6.33
2018-04-22T10:10:05.408Z,6.63
2018-04-22T10:12:33.300Z,7.30
2018-04-22T10:15:01.182Z,5.67
2018-04-22T10:17:30.980Z,5.50
2018-04-22T10:19:59.845Z,6.93
2018-04-22T10:22:27.509Z,7.47
2018-04-22T10:24:55.152Z,6.80
2018-04-22T10:27:23.534Z,6.13
2018-04-22T10:29:51.219Z,6.87
2018-04-22T10:32:18.965Z,6.93
2018-04-22T10:34:46.640Z,7.07
2018-04-22T10:37:14.198Z,6.30
2018-04-22T10:39:42.562Z,6.87
2018-04-22T10:42:10.275Z,6.80
2018-04-22T10:44:38.894Z,6.80
2018-04-22T10:47:06.517Z,7.53
2018-04-22T10:49:34.148Z,6.60
2018-04-22T10:52:01.815Z,8.93
2018-04-22T10:54:29.463Z,6.67
2018-04-22T10:56:57.325Z,10.07
2018-04-22T10:59:25.001Z,6.57
2018-04-22T11:01:56.814Z,6.17
2018-04-22T11:04:25.193Z,7.63
2018-04-22T11:06:53.774Z,13.77
2018-04-22T11:09:22.242Z,6.70
2018-04-22T11:11:50.880Z,6.20
2018-04-22T11:14:18.506Z,7.07
2018-04-22T11:16:46.878Z,6.30
2018-04-22T11:19:15.310Z,6.13
2018-04-22T11:21:42.908Z,5.83
2018-04-22T11:24:10.589Z,6.53
2018-04-22T11:26:38.219Z,5.90
2018-04-22T11:29:05.818Z,5.23
2018-04-22T11:31:37.354Z,5.13
2018-04-22T11:34:06.997Z,5.50
2018-04-22T11:36:35.537Z,6.23
2018-04-22T11:39:04.595Z,5.93
2018-04-22T11:41:35.688Z,4.67
2018-04-22T11:44:08.088Z,4.60
2018-04-22T11:46:36.840Z,4.87
2018-04-22T11:49:05.067Z,4.73
2018-04-22T11:51:34.211Z,4.60
2018-04-22T11:54:03.880Z,4.87
2018-04-22T11:56:31.587Z,5.10
2018-04-22T11:58:59.250Z,5.07
2018-04-22T12:01:27.639Z,4.90
2018-04-22T12:03:58.108Z,5.00
2018-04-22T12:06:27.316Z,5.00
2018-04-22T12:08:55.673Z,4.63
2018-04-22T12:11:23.624Z,4.00
2018-04-22T12:13:55.386Z,5.23
2018-04-22T12:16:23.048Z,4.40
2018-04-22T12:18:50.719Z,4.30
2018-04-22T12:21:19.182Z,4.67
2018-04-22T12:23:46.761Z,4.03
2018-04-22T12:26:14.351Z,5.00
2018-04-22T12:28:42.743Z,4.10
2018-04-22T12:31:11.877Z,5.27
2018-04-22T12:33:39.538Z,4.30
2018-04-22T12:36:07.150Z,4.40
2018-04-22T12:38:35.537Z,4.40
2018-04-22T12:41:03.193Z,4.30
2018-04-22T12:43:31.597Z,4.10
2018-04-22T12:45:59.336Z,4.37
2018-04-22T12:48:27.688Z,3.70
2018-04-22T12:50:55.284Z,3.77
2018-04-22T12:53:22.897Z,3.90
2018-04-22T12:55:52.155Z,4.03
2018-04-22T12:58:19.776Z,3.97
2018-04-22T13:00:49.834Z,3.80
2018-04-22T13:03:19.166Z,4.20
2018-04-22T13:05:46.809Z,3.80
2018-04-22T13:08:15.422Z,4.23
2018-04-22T13:10:44.400Z,4.30
2018-04-22T13:13:14.611Z,4.97
2018-04-22T13:15:43.031Z,4.03
2018-04-22T13:18:12.309Z,3.83
2018-04-22T13:20:39.899Z,4.00
2018-04-22T13:23:08.251Z,3.60
2018-04-22T13:25:35.858Z,3.93
2018-04-22T13:28:03.501Z,3.80
2018-04-22T13:30:31.110Z,4.00
2018-04-22T13:32:58.744Z,3.80
2018-04-22T13:35:26.356Z,3.70
2018-04-22T13:37:53.944Z,3.77
2018-04-22T13:40:21.536Z,3.90
2018-04-22T13:42:49.311Z,3.57
2018-04-22T13:45:17.848Z,3.70
2018-04-22T13:47:45.507Z,3.43
2018-04-22T13:50:13.129Z,4.30
2018-04-22T13:52:40.827Z,4.13
2018-04-22T13:55:09.529Z,3.70
2018-04-22T13:57:37.137Z,3.63
2018-04-22T14:00:05.517Z,3.87
2018-04-22T14:02:33.948Z,3.90
2018-04-22T14:05:02.328Z,3.20
2018-04-22T14:07:29.920Z,3.53
2018-04-22T14:09:57.561Z,3.50
2018-04-22T14:12:25.142Z,3.47
2018-04-22T14:14:52.757Z,3.60
2018-04-22T14:17:20.405Z,3.50
2018-04-22T14:19:48.050Z,3.57
2018-04-22T14:22:16.412Z,3.63
2018-04-22T14:24:45.549Z,3.00
2018-04-22T14:27:13.141Z,3.10
2018-04-22T14:29:40.745Z,3.73
2018-04-22T14:32:09.145Z,3.50
2018-04-22T14:34:36.761Z,3.70
2018-04-22T14:37:05.939Z,3.23
2018-04-22T14:39:33.563Z,3.63
2018-04-22T14:42:01.157Z,4.07
2018-04-22T14:44:40.823Z,3.40
2018-04-22T14:47:08.451Z,3.77
2018-04-22T14:49:36.048Z,3.60
2018-04-22T14:52:03.687Z,3.13
2018-04-22T14:54:31.330Z,3.47
2018-04-22T14:56:58.930Z,3.43
2018-04-22T14:59:27.355Z,3.50
2018-04-22T15:01:54.932Z,3.20
2018-04-22T15:04:22.520Z,3.63
2018-04-22T15:06:51.688Z,4.00
2018-04-22T15:09:19.334Z,3.30
2018-04-22T15:11:46.939Z,4.20
2018-04-22T15:14:16.061Z,3.70
2018-04-22T15:16:44.470Z,3.60
2018-04-22T15:19:12.093Z,3.00
2018-04-22T15:21:40.491Z,3.60
2018-04-22T15:24:08.108Z,3.80
2018-04-22T15:26:35.692Z,4.10
2018-04-22T15:29:04.069Z,4.17
2018-04-22T15:31:32.448Z,3.67
2018-04-22T15:34:00.827Z,3.73
2018-04-22T15:36:30.205Z,4.20
2018-04-22T15:38:58.990Z,3.87
2018-04-22T15:41:28.283Z,3.90
2018-04-22T15:43:56.747Z,3.20
2018-04-22T15:46:24.342Z,3.50
2018-04-22T15:48:53.472Z,3.70
2018-04-22T15:51:21.141Z,3.90
2018-04-22T15:53:48.738Z,3.93
2018-04-22T15:56:16.366Z,4.03
2018-04-22T15:58:44.058Z,4.00
2018-04-22T16:01:11.725Z,3.93
2018-04-22T16:03:39.422Z,3.83
2018-04-22T16:06:07.857Z,3.63
2018-04-22T16:08:35.505Z,3.73
2018-04-22T16:11:03.222Z,4.07
2018-04-22T16:13:31.571Z,4.00
2018-04-22T16:15:59.175Z,3.53
2018-04-22T16:18:26.779Z,3.50
2018-04-22T16:20:54.620Z,3.80
2018-04-22T16:23:22.250Z,4.40
2018-04-22T16:25:51.496Z,3.60
2018-04-22T16:28:20.634Z,4.17
2018-04-22T16:30:49.075Z,4.00
2018-04-22T16:33:18.532Z,4.07
2018-04-22T16:35:46.140Z,4.33
2018-04-22T16:38:13.760Z,3.97
2018-04-22T16:40:41.374Z,3.83
2018-04-22T16:43:09.033Z,4.13
2018-04-22T16:45:36.631Z,4.23
2018-04-22T16:48:04.995Z,3.50
2018-04-22T16:50:33.454Z,4.30
2018-04-22T16:53:01.019Z,3.63
2018-04-22T16:55:28.647Z,3.70
2018-04-22T16:57:56.223Z,3.80
2018-04-22T17:00:23.837Z,4.90
2018-04-22T17:02:51.442Z,4.10
2018-04-22T17:05:19.049Z,4.80
2018-04-22T17:07:46.667Z,5.07
2018-04-22T17:10:14.246Z,4.23
2018-04-22T17:12:41.968Z,4.20
2018-04-22T17:15:09.611Z,3.83
2018-04-22T17:17:37.204Z,4.43
2018-04-22T17:20:04.779Z,4.30
2018-04-22T17:22:32.552Z,3.97
2018-04-22T17:25:01.305Z,4.00
2018-04-22T17:27:28.907Z,3.80
2018-04-22T17:29:57.276Z,4.60
2018-04-22T17:32:24.907Z,5.37
2018-04-22T17:34:52.560Z,4.87
2018-04-22T17:37:20.873Z,4.40
2018-04-22T17:39:49.274Z,4.60
2018-04-22T17:42:16.920Z,4.60
2018-04-22T17:44:45.291Z,4.33
2018-04-22T17:47:13.034Z,4.50
2018-04-22T17:49:41.453Z,5.00
2018-04-22T17:52:11.032Z,5.00
2018-04-22T17:54:39.455Z,4.23
2018-04-22T17:57:07.141Z,4.40
2018-04-22T17:59:34.740Z,4.60
2018-04-22T18:02:02.426Z,4.60
2018-04-22T18:04:30.029Z,4.60
2018-04-22T18:09:33.355Z,4.27
2018-04-22T18:12:00.971Z,4.50
2018-04-22T18:14:28.581Z,4.10
2018-04-22T18:16:57.046Z,4.17
2018-04-22T18:19:24.642Z,4.57
2018-04-22T18:21:53.036Z,3.53
2018-04-22T18:24:20.705Z,4.17
2018-04-22T18:26:48.313Z,4.13
2018-04-22T18:29:15.966Z,3.87
2018-04-22T18:31:43.586Z,3.77
2018-04-22T18:34:11.208Z,4.30
2018-04-22T18:36:38.799Z,3.87
2018-04-22T18:39:07.526Z,3.67
2018-04-22T18:41:35.152Z,4.03
2018-04-22T18:44:03.475Z,4.00
2018-04-22T18:46:31.109Z,4.33
2018-04-22T18:48:59.401Z,4.13
2018-04-22T18:51:27.033Z,4.20
2018-04-22T18:53:54.686Z,4.07
2018-04-22T18:56:22.424Z,4.60
2018-04-22T18:58:50.787Z,4.73
2018-04-22T19:01:18.392Z,4.47
2018-04-22T19:03:45.995Z,5.03
2018-04-22T19:06:14.362Z,5.00
2018-04-22T19:08:41.987Z,4.20
2018-04-22T19:11:09.629Z,4.20
2018-04-22T19:13:37.971Z,4.30
2018-04-22T19:16:05.560Z,4.13
2018-04-22T19:18:34.660Z,4.27
2018-04-22T19:21:03.060Z,4.00
2018-04-22T19:23:30.677Z,4.43
2018-04-22T19:25:59.096Z,4.43
2018-04-22T19:28:26.749Z,4.47
2018-04-22T19:30:54.461Z,4.67
2018-04-22T19:33:22.081Z,5.03
2018-04-22T19:35:49.702Z,4.67
2018-04-22T19:38:18.127Z,4.07
2018-04-22T19:40:45.799Z,4.50
2018-04-22T19:43:13.426Z,4.63
2018-04-22T19:45:41.028Z,4.40
2018-04-22T19:48:08.665Z,4.57
2018-04-22T19:50:36.317Z,4.80
2018-04-22T19:53:03.946Z,5.10
2018-04-22T19:55:32.383Z,4.60
2018-04-22T19:58:00.054Z,5.07
2018-04-22T20:00:27.688Z,5.10
2018-04-22T20:02:56.090Z,4.77
2018-04-22T20:05:23.815Z,5.27
2018-04-22T20:07:51.454Z,5.87
2018-04-22T20:10:19.848Z,5.13
2018-04-22T20:12:47.499Z,5.43
2018-04-22T20:15:15.840Z,5.33
2018-04-22T20:17:44.196Z,6.00
2018-04-22T20:20:11.820Z,4.93
2018-04-22T20:22:40.338Z,5.67
2018-04-22T20:25:08.020Z,5.00
2018-04-22T20:27:35.644Z,5.77
2018-04-22T20:30:03.382Z,5.53
2018-04-22T20:32:31.816Z,5.03
2018-04-22T20:34:59.428Z,5.30
2018-04-22T20:37:27.042Z,5.70
2018-04-22T20:39:54.696Z,5.00
2018-04-22T20:42:22.322Z,6.20
2018-04-22T20:44:50.537Z,5.47
2018-04-22T20:47:18.994Z,5.53
2018-04-22T20:49:46.608Z,5.90
2018-04-22T20:52:16.812Z,5.73
2018-04-22T20:54:44.445Z,6.33
2018-04-22T20:57:12.023Z,5.80
2018-04-22T20:59:39.638Z,5.90
2018-04-22T21:02:07.272Z,5.90
2018-04-22T21:04:35.670Z,5.33
2018-04-22T21:07:04.267Z,6.20
2018-04-22T21:09:31.907Z,5.90
2018-04-22T21:11:59.517Z,6.03
2018-04-22T21:14:27.266Z,6.23
2018-04-22T21:16:54.860Z,6.80
2018-04-22T21:19:23.980Z,6.23
2018-04-22T21:21:52.340Z,5.80
2018-04-22T21:24:19.996Z,6.30
2018-04-22T21:26:47.638Z,6.17
2018-04-22T21:29:15.294Z,5.00
2018-04-22T21:31:42.969Z,7.23
2018-04-22T21:34:10.572Z,5.07
2018-04-22T21:36:38.161Z,5.30
2018-04-22T21:39:06.539Z,5.43
2018-04-22T21:41:34.155Z,5.13
2018-04-22T21:44:01.805Z,4.97
2018-04-22T21:46:30.212Z,5.50
2018-04-22T21:48:57.909Z,5.33
2018-04-22T21:51:25.586Z,5.27
2018-04-22T21:53:53.989Z,5.27
2018-04-22T21:56:22.413Z,4.97
2018-04-22T21:58:50.031Z,4.97
2018-04-22T22:01:18.412Z,4.50
2018-04-22T22:03:46.836Z,4.60
2018-04-22T22:06:14.435Z,4.20
2018-04-22T22:08:42.052Z,5.27
2018-04-22T22:11:09.802Z,5.17
2018-04-22T22:13:37.525Z,4.90
2018-04-22T22:16:06.072Z,4.57
2018-04-22T22:18:33.806Z,4.30
2018-04-22T22:21:01.410Z,4.77
2018-04-22T22:23:29.068Z,3.93
2018-04-22T22:25:56.664Z,3.67
2018-04-22T22:28:25.019Z,4.10
2018-04-22T22:30:52.661Z,3.77
2018-04-22T22:33:20.244Z,3.73
2018-04-22T22:35:47.863Z,4.17
2018-04-22T22:38:15.491Z,3.60
2018-04-22T22:40:43.074Z,4.03
2018-04-22T22:43:10.769Z,3.87
2018-04-22T22:45:38.385Z,3.70
2018-04-22T22:48:06.083Z,3.40
2018-04-22T22:50:33.702Z,3.80
2018-04-22T22:53:01.666Z,3.67
2018-04-22T22:55:29.291Z,3.67
2018-04-22T22:57:58.563Z,4.00
2018-04-22T23:00:26.189Z,4.00
2018-04-22T23:02:53.824Z,4.13
2018-04-22T23:05:22.285Z,4.03
2018-04-22T23:07:50.748Z,3.80
2018-04-22T23:10:18.851Z,4.43
2018-04-22T23:12:47.265Z,4.10
2018-04-22T23:15:14.903Z,4.37
2018-04-22T23:17:42.554Z,4.23
2018-04-22T23:20:10.919Z,4.30
2018-04-22T23:22:38.517Z,4.10
2018-04-22T23:25:06.136Z,4.10
2018-04-22T23:27:33.797Z,4.30
2018-04-22T23:30:01.398Z,4.57
2018-04-22T23:32:28.995Z,4.80
2018-04-22T23:34:56.603Z,4.60
2018-04-22T23:37:25.001Z,4.53
2018-04-22T23:39:52.585Z,4.67
2018-04-22T23:42:20.193Z,4.90
2018-04-22T23:44:48.590Z,4.87
2018-04-22T23:47:16.210Z,4.70
2018-04-22T23:49:43.796Z,4.87
2018-04-22T23:52:12.166Z,4.70
2018-04-22T23:54:40.542Z,4.83
2018-04-22T23:57:08.949Z,5.07
2018-04-22T23:59:36.531Z,4.73
